Time;durP1;ratioP1;P1;durP2;ratioP2;P2;SDS_P1;SDS_P2;PMS_P1;PMS_P2;Temp;Humidity;BMP_temperature;BMP_pressure;BME280_temperature;BME280_humidity;BME280_pressure;Samples;Min_cycle;Max_cycle;Signal;HPM_P1;HPM_P2
2022/03/10 00:01:13;;;;;;;4.10;2.03;;;;;;;-10.78;41.13;101097.25;4881056;29;20399;-73
2022/03/10 00:03:37;;;;;;;5.72;3.00;;;;;;;-10.79;41.74;101103.22;4880523;29;20791;-73
2022/03/10 00:06:02;;;;;;;4.47;2.22;;;;;;;-10.84;41.46;101103.06;4881184;29;20463;-77
2022/03/10 00:08:28;;;;;;;6.95;2.55;;;;;;;-10.86;41.32;101102.13;4880544;29;20044;-72
2022/03/10 00:10:52;;;;;;;12.32;2.78;;;;;;;-10.86;41.87;101093.53;4879458;29;20047;-76
2022/03/10 00:13:17;;;;;;;8.82;2.88;;;;;;;-10.85;41.21;101098.75;4881645;29;20127;-73
2022/03/10 00:15:42;;;;;;;3.20;2.15;;;;;;;-10.86;41.44;101090.94;4881768;29;20111;-78
2022/03/10 00:18:07;;;;;;;5.22;2.13;;;;;;;-10.89;41.83;101093.41;4883081;29;20067;-82
2022/03/10 00:20:32;;;;;;;5.80;2.72;;;;;;;-10.89;41.97;101093.41;4866676;29;20036;-72
2022/03/10 00:22:57;;;;;;;4.15;2.30;;;;;;;-10.90;41.28;101092.53;4883964;29;20107;-71
2022/03/10 00:25:21;;;;;;;4.00;2.20;;;;;;;-10.92;41.43;101094.16;4866677;29;20155;-71
2022/03/10 00:27:47;;;;;;;2.53;1.70;;;;;;;-10.92;41.40;101119.91;4885142;29;20048;-71
2022/03/10 00:30:12;;;;;;;3.42;1.85;;;;;;;-10.92;42.25;101108.72;4864981;29;20068;-71
2022/03/10 00:32:46;;;;;;;2.45;1.85;;;;;;;-10.91;42.06;101108.78;4882492;29;20044;-70
2022/03/10 00:35:14;;;;;;;2.78;2.30;;;;;;;-10.91;42.03;101108.78;4881241;29;20048;-72
2022/03/10 00:37:38;;;;;;;7.75;2.92;;;;;;;-10.93;42.02;101113.00;4883188;29;20044;-71
2022/03/10 00:40:04;;;;;;;5.47;2.85;;;;;;;-10.94;41.92;101115.50;4887530;29;20091;-76
2022/03/10 00:42:38;;;;;;;2.22;2.03;;;;;;;-10.91;42.08;101119.09;4893176;29;20060;-75
2022/03/10 00:45:03;;;;;;;6.13;2.58;;;;;;;-10.94;42.33;101136.13;4892842;29;20125;-76
2022/03/10 00:47:31;;;;;;;4.18;2.20;;;;;;;-10.94;41.67;101136.13;4886073;29;20071;-79
2022/03/10 00:49:55;;;;;;;7.82;3.10;;;;;;;-10.98;42.62;101124.84;4887186;29;20179;-78
2022/03/10 00:52:20;;;;;;;5.25;2.90;;;;;;;-10.97;42.37;101128.31;4853697;29;20083;-73
2022/03/10 00:54:45;;;;;;;5.85;2.53;;;;;;;-10.98;42.25;101135.16;4893528;29;20076;-77
2022/03/10 00:57:09;;;;;;;4.63;2.47;;;;;;;-10.98;42.44;101129.13;4887693;29;20053;-74
2022/03/10 00:59:34;;;;;;;3.17;2.22;;;;;;;-10.98;42.29;101140.28;4885498;29;20055;-74
2022/03/10 01:01:59;;;;;;;7.45;2.63;;;;;;;-10.98;42.03;101135.16;4903951;29;20068;-75
2022/03/10 01:04:25;;;;;;;5.15;2.92;;;;;;;-10.96;42.49;101140.34;4911381;29;20127;-73
2022/03/10 01:06:50;;;;;;;3.10;1.98;;;;;;;-10.93;41.59;101140.44;4884452;29;20181;-66
2022/03/10 01:09:16;;;;;;;6.88;2.78;;;;;;;-10.94;41.84;101138.69;4882774;29;20040;-66
2022/03/10 01:11:40;;;;;;;5.10;2.95;;;;;;;-10.94;42.01;101151.56;4884161;29;20054;-68
2022/03/10 01:14:05;;;;;;;5.43;2.97;;;;;;;-11.03;42.16;101141.81;4883481;29;20127;-68
2022/03/10 01:16:31;;;;;;;4.88;2.85;;;;;;;-10.98;41.97;101155.75;4883779;29;20052;-68
2022/03/10 01:18:55;;;;;;;2.97;1.95;;;;;;;-11.00;42.04;101149.66;4882126;29;20059;-68
2022/03/10 01:21:20;;;;;;;7.38;2.70;;;;;;;-11.03;42.20;101159.81;4882299;29;20075;-69
2022/03/10 01:23:45;;;;;;;4.20;2.58;;;;;;;-11.08;42.37;101157.09;4880553;29;20126;-69
2022/03/10 01:26:10;;;;;;;3.40;2.20;;;;;;;-11.14;42.44;101154.25;4882587;29;20047;-66
2022/03/10 01:28:34;;;;;;;5.00;2.75;;;;;;;-11.17;43.06;101151.56;4894551;29;20044;-66
2022/03/10 01:30:59;;;;;;;7.78;3.28;;;;;;;-11.21;43.51;101151.38;4896876;29;20055;-64
2022/03/10 01:33:25;;;;;;;4.13;2.58;;;;;;;-11.24;43.56;101157.28;4894928;29;20046;-65
2022/03/10 01:35:51;;;;;;;6.75;3.45;;;;;;;-11.25;43.75;101157.22;4865427;29;20047;-65
2022/03/10 01:38:16;;;;;;;5.20;3.22;;;;;;;-11.27;43.53;101153.69;4879635;29;20094;-67
2022/03/10 01:40:40;;;;;;;5.53;2.75;;;;;;;-11.27;44.17;101164.00;4881092;29;20563;-67
2022/03/10 01:43:05;;;;;;;11.02;2.90;;;;;;;-11.25;43.22;101159.78;4880938;29;20044;-66
2022/03/10 01:45:30;;;;;;;6.10;2.90;;;;;;;-11.25;43.88;101160.69;4881770;29;20066;-65
2022/03/10 01:47:54;;;;;;;4.70;2.88;;;;;;;-11.24;42.88;101162.44;4880852;29;20036;-66
2022/03/10 01:50:19;;;;;;;4.15;2.55;;;;;;;-11.25;44.18;101163.25;4896866;29;20040;-65
2022/03/10 01:52:45;;;;;;;12.02;2.92;;;;;;;-11.27;44.15;101167.44;4891916;29;20099;-65
2022/03/10 01:55:11;;;;;;;6.18;3.65;;;;;;;-11.28;44.15;101167.38;4880804;29;20047;-63
2022/03/10 01:57:37;;;;;;;6.68;3.35;;;;;;;-11.31;44.11;101177.59;4881235;29;20046;-64
2022/03/10 02:00:03;;;;;;;7.10;2.38;;;;;;;-11.29;43.30;101178.53;4885583;29;20531;-64
2022/03/10 02:02:29;;;;;;;6.40;3.50;;;;;;;-11.32;44.55;101175.81;4890926;29;20071;-70
2022/03/10 02:04:54;;;;;;;17.20;3.75;;;;;;;-11.33;44.33;101190.38;4890316;29;20056;-71
2022/03/10 02:10:17;;;;;;;5.10;2.88;;;;;;;-11.38;44.47;101187.59;4882100;29;20044;-70
2022/03/10 02:12:47;;;;;;;3.95;2.63;;;;;;;-11.40;44.33;101196.09;4884564;29;20079;-84
2022/03/10 02:18:10;;;;;;;4.45;3.10;;;;;;;-11.46;44.16;101199.28;4882822;29;20399;-74
2022/03/10 02:20:36;;;;;;;2.03;1.50;;;;;;;-11.47;44.42;101212.09;4913518;29;20079;-78
2022/03/10 02:23:01;;;;;;;5.53;3.15;;;;;;;-11.51;44.45;101207.66;4866144;29;20036;-71
2022/03/10 02:25:27;;;;;;;5.65;3.15;;;;;;;-11.51;45.10;101211.06;4883496;29;20048;-79
2022/03/10 02:27:55;;;;;;;4.25;2.25;;;;;;;-11.49;44.43;101209.44;4881109;29;20048;-76
2022/03/10 02:30:21;;;;;;;4.80;2.80;;;;;;;-11.50;44.72;101207.69;4891915;29;20056;-73
2022/03/10 02:32:46;;;;;;;5.13;3.10;;;;;;;-11.50;44.38;101207.69;4901420;29;20079;-70
2022/03/10 02:35:13;;;;;;;6.32;3.10;;;;;;;-11.52;44.89;101214.50;4888808;29;20056;-78
2022/03/10 02:37:38;;;;;;;5.82;3.10;;;;;;;-11.49;44.74;101208.56;4881509;29;20201;-78
2022/03/10 02:40:03;;;;;;;4.60;3.60;;;;;;;-11.52;44.77;101204.19;4850791;29;20074;-77
2022/03/10 02:42:30;;;;;;;3.78;2.33;;;;;;;-11.52;45.36;101206.78;4866290;29;20139;-74
2022/03/10 02:44:55;;;;;;;6.97;3.92;;;;;;;-11.54;45.33;101213.53;4866758;29;20056;-83
2022/03/10 02:47:20;;;;;;;5.63;2.35;;;;;;;-11.53;44.29;101214.41;4848157;29;20040;-69
2022/03/10 02:49:45;;;;;;;6.60;2.75;;;;;;;-11.55;44.85;101227.22;4863196;29;20111;-70
2022/03/10 02:52:10;;;;;;;4.47;3.00;;;;;;;-11.54;44.67;101228.09;4880435;29;20048;-69
2022/03/10 02:54:35;;;;;;;4.03;2.38;;;;;;;-11.53;44.37;101217.88;4880590;29;20427;-72
2022/03/10 02:57:00;;;;;;;2.90;2.53;;;;;;;-11.53;44.91;101217.00;4879279;29;20048;-71
2022/03/10 02:59:25;;;;;;;3.13;2.40;;;;;;;-11.52;44.33;101219.63;4879647;29;20407;-70
2022/03/10 03:01:50;;;;;;;5.63;2.38;;;;;;;-11.52;44.58;101227.34;4884736;29;20122;-69
2022/03/10 03:04:15;;;;;;;15.88;3.08;;;;;;;-11.52;44.25;101219.63;4885172;29;20094;-70
2022/03/10 03:06:40;;;;;;;8.18;4.07;;;;;;;-11.53;44.71;101230.75;4864735;29;20044;-71
2022/03/10 03:09:05;;;;;;;5.25;3.00;;;;;;;-11.54;44.60;101235.81;4880931;29;20044;-67
2022/03/10 03:11:29;;;;;;;4.82;2.83;;;;;;;-11.54;44.68;101243.53;4880434;29;20047;-66
2022/03/10 03:13:56;;;;;;;4.68;2.55;;;;;;;-11.56;45.07;101228.03;4910568;29;20052;-66
2022/03/10 03:16:21;;;;;;;6.40;2.95;;;;;;;-11.57;45.22;101225.38;4880126;29;20067;-68
2022/03/10 03:18:45;;;;;;;8.07;2.80;;;;;;;-11.57;44.61;101230.53;4879896;29;20091;-68
2022/03/10 03:21:10;;;;;;;5.53;2.97;;;;;;;-11.62;45.35;101232.03;4879973;29;20115;-67
2022/03/10 03:23:35;;;;;;;5.35;2.90;;;;;;;-11.63;45.04;101228.59;4879561;29;20178;-67
2022/03/10 03:26:00;;;;;;;8.85;2.33;;;;;;;-11.66;45.32;101241.31;4889049;29;20044;-67
2022/03/10 03:28:24;;;;;;;6.45;2.75;;;;;;;-11.65;44.71;101243.06;4896510;29;20048;-66
2022/03/10 03:30:49;;;;;;;5.50;3.13;;;;;;;-11.66;44.95;101243.88;4894276;29;20056;-67
2022/03/10 03:33:14;;;;;;;7.47;3.38;;;;;;;-11.69;45.81;101242.88;4881034;29;20048;-67
2022/03/10 03:35:39;;;;;;;4.60;3.20;;;;;;;-11.71;45.85;101245.38;4877245;29;20063;-66
2022/03/10 03:38:04;;;;;;;6.30;3.00;;;;;;;-11.75;45.18;101257.25;4862901;29;20095;-68
2022/03/10 03:40:28;;;;;;;11.00;3.45;;;;;;;-11.74;45.36;101253.81;4864322;29;20064;-66
2022/03/10 03:42:53;;;;;;;5.38;2.75;;;;;;;-11.73;44.91;101242.72;4861026;29;20041;-66
2022/03/10 03:45:19;;;;;;;6.13;2.78;;;;;;;-11.71;45.11;101255.66;4861056;29;20052;-66
2022/03/10 03:47:44;;;;;;;5.22;3.13;;;;;;;-11.74;45.59;101261.53;4860809;29;20049;-68
2022/03/10 03:50:09;;;;;;;6.00;2.90;;;;;;;-11.75;45.55;101258.97;4891486;29;20045;-67
2022/03/10 03:52:34;;;;;;;4.88;3.25;;;;;;;-11.73;44.83;101257.28;4861033;29;20072;-67
2022/03/10 03:54:59;;;;;;;5.03;3.00;;;;;;;-11.73;45.38;101263.31;4861209;29;20063;-67
2022/03/10 03:57:23;;;;;;;5.68;3.17;;;;;;;-11.72;44.53;101271.91;4860929;29;20523;-67
2022/03/10 03:59:48;;;;;;;3.60;2.20;;;;;;;-11.73;45.13;101271.03;4859577;29;20408;-68
2022/03/10 04:02:13;;;;;;;5.20;2.50;;;;;;;-11.72;45.21;101277.03;4860757;29;20058;-67
2022/03/10 04:04:38;;;;;;;2.85;2.38;;;;;;;-11.71;44.72;101275.34;4860899;29;20036;-67
2022/03/10 04:07:03;;;;;;;4.95;2.78;;;;;;;-11.70;44.68;101272.84;4875093;29;20139;-67
2022/03/10 04:09:28;;;;;;;5.32;2.58;;;;;;;-11.69;45.61;101282.34;4844035;29;20119;-67
2022/03/10 04:11:52;;;;;;;9.30;3.00;;;;;;;-11.68;44.62;101286.66;4829025;29;20131;-67
2022/03/10 04:14:18;;;;;;;8.55;2.75;;;;;;;-11.69;45.04;101284.91;4891368;29;20040;-67
2022/03/10 04:16:43;;;;;;;9.65;3.95;;;;;;;-11.59;44.72;101286.19;4863072;29;20066;-68
2022/03/10 04:19:08;;;;;;;5.13;3.25;;;;;;;-11.54;44.58;101290.72;4895326;29;20451;-67
2022/03/10 04:21:33;;;;;;;3.60;2.13;;;;;;;-11.47;44.11;101297.88;4849622;29;20083;-64
2022/03/10 04:23:57;;;;;;;7.57;2.85;;;;;;;-11.43;44.41;101297.22;4868681;29;20495;-66
2022/03/10 04:26:23;;;;;;;4.30;2.80;;;;;;;-11.41;44.32;101294.72;4867577;29;20504;-66
2022/03/10 04:28:47;;;;;;;6.43;3.10;;;;;;;-11.34;45.25;101296.72;4866564;29;20051;-65
2022/03/10 04:31:12;;;;;;;7.15;2.42;;;;;;;-11.13;44.93;101302.75;4836320;29;20151;-66
2022/03/10 04:33:37;;;;;;;5.97;2.47;;;;;;;-10.84;44.43;101293.69;4883745;29;20048;-66
2022/03/10 04:36:02;;;;;;;6.35;3.35;;;;;;;-10.52;44.27;101296.66;4864241;29;20135;-66
2022/03/10 04:38:28;;;;;;;3.75;2.72;;;;;;;-10.17;43.39;101303.16;4864716;29;20131;-65
2022/03/10 04:40:52;;;;;;;6.68;3.25;;;;;;;-9.83;43.38;101301.00;4864336;29;20044;-67
2022/03/10 04:43:17;;;;;;;5.78;3.10;;;;;;;-9.56;41.97;101301.97;4864245;29;20063;-67
2022/03/10 04:45:42;;;;;;;2.95;2.15;;;;;;;-9.26;41.36;101306.47;4864401;29;20068;-70
2022/03/10 04:48:06;;;;;;;6.70;2.78;;;;;;;-9.04;40.50;101296.06;4862910;29;20051;-66
2022/03/10 04:50:31;;;;;;;3.58;2.40;;;;;;;-8.88;40.40;101302.59;4864031;29;20174;-67
2022/03/10 04:52:56;;;;;;;4.88;2.97;;;;;;;-8.65;40.64;101311.97;4862849;29;20044;-67
2022/03/10 04:55:21;;;;;;;6.93;3.08;;;;;;;-8.40;39.67;101313.66;4864210;29;20044;-67
2022/03/10 04:57:45;;;;;;;4.18;2.58;;;;;;;-8.16;39.51;101310.91;4863666;29;20060;-65
2022/03/10 05:00:11;;;;;;;3.92;2.58;;;;;;;-7.91;38.88;101316.00;4863886;29;20052;-66
2022/03/10 05:02:39;;;;;;;5.22;2.60;;;;;;;-7.71;38.18;101313.97;4864307;29;20055;-76
2022/03/10 05:05:06;;;;;;;4.72;3.15;;;;;;;-7.52;39.01;101317.94;4894904;29;20056;-76
2022/03/10 05:07:31;;;;;;;6.30;3.10;;;;;;;-7.34;37.88;101321.94;4847304;29;20415;-76
2022/03/10 05:09:56;;;;;;;3.53;2.63;;;;;;;-7.18;37.75;101328.41;4863479;29;20420;-75
2022/03/10 05:12:20;;;;;;;4.85;2.63;;;;;;;-7.02;38.03;101324.53;4863550;29;20048;-76
2022/03/10 05:14:46;;;;;;;4.53;2.67;;;;;;;-6.94;37.91;101323.00;4864539;29;20183;-76
2022/03/10 05:17:11;;;;;;;3.85;2.63;;;;;;;-6.80;36.76;101333.72;4847129;29;20139;-76
2022/03/10 05:19:36;;;;;;;4.65;3.05;;;;;;;-6.63;36.65;101333.28;4847653;29;20107;-75
2022/03/10 05:22:00;;;;;;;6.53;4.18;;;;;;;-6.40;36.78;101327.78;4878367;29;20133;-75
2022/03/10 05:24:25;;;;;;;5.57;2.65;;;;;;;-6.26;35.95;101331.59;4898683;29;20146;-74
2022/03/10 05:26:50;;;;;;;3.58;2.30;;;;;;;-6.01;36.34;101331.31;4858919;29;20037;-76
2022/03/10 05:29:15;;;;;;;5.88;3.55;;;;;;;-5.65;35.32;101336.41;4875088;29;20044;-76
2022/03/10 05:31:40;;;;;;;6.90;3.15;;;;;;;-5.26;35.19;101340.63;4858707;29;20040;-76
2022/03/10 05:34:04;;;;;;;5.35;2.83;;;;;;;-4.87;34.95;101341.41;4868926;29;20052;-76
2022/03/10 05:36:29;;;;;;;6.50;3.95;;;;;;;-4.51;33.63;101332.44;4866188;29;20390;-75
2022/03/10 05:38:54;;;;;;;6.28;3.08;;;;;;;-4.24;33.73;101343.31;4866960;29;20036;-75
2022/03/10 05:41:19;;;;;;;4.93;2.83;;;;;;;-3.82;32.78;101350.00;4865501;29;20052;-75
2022/03/10 05:43:43;;;;;;;3.72;2.95;;;;;;;-3.43;31.96;101347.06;4864423;29;20048;-78
2022/03/10 05:46:08;;;;;;;5.15;3.53;;;;;;;-3.05;31.78;101347.50;4846606;29;20049;-75
2022/03/10 05:48:33;;;;;;;4.75;3.15;;;;;;;-2.80;31.18;101341.66;4847872;29;20052;-74
2022/03/10 05:50:58;;;;;;;6.35;3.72;;;;;;;-2.66;30.49;101341.78;4868544;29;20512;-76
2022/03/10 05:53:23;;;;;;;8.93;3.25;;;;;;;-2.39;30.90;101338.56;4871485;29;20048;-74
2022/03/10 05:55:48;;;;;;;5.35;3.22;;;;;;;-2.07;30.55;101350.13;4868941;29;20036;-77
2022/03/10 05:58:13;;;;;;;12.10;4.72;;;;;;;-1.85;29.47;101349.41;4864210;29;20055;-73
2022/03/10 06:00:38;;;;;;;5.72;3.15;;;;;;;-1.72;29.26;101342.50;4894221;29;20055;-75
2022/03/10 06:03:03;;;;;;;4.38;2.90;;;;;;;-1.52;28.80;101346.09;4863172;29;20045;-77
2022/03/10 06:05:28;;;;;;;6.47;2.63;;;;;;;-1.12;29.03;101351.47;4864391;29;20127;-69
2022/03/10 06:07:53;;;;;;;4.60;3.20;;;;;;;-0.80;28.30;101351.59;4864945;29;20040;-67
2022/03/10 06:10:17;;;;;;;5.30;3.30;;;;;;;-0.55;27.83;101365.56;4865468;29;20151;-67
2022/03/10 06:12:43;;;;;;;7.13;3.38;;;;;;;-0.38;27.04;101356.88;4863267;29;20040;-68
2022/03/10 06:15:09;;;;;;;4.38;2.97;;;;;;;-0.31;27.24;101367.34;4863994;29;20056;-65
2022/03/10 06:17:34;;;;;;;4.22;3.28;;;;;;;-0.31;27.25;101370.81;4863475;29;20504;-65
2022/03/10 06:19:59;;;;;;;5.47;3.40;;;;;;;-0.18;27.15;101359.47;4863329;29;20052;-65
2022/03/10 06:22:27;;;;;;;8.02;4.13;;;;;;;0.20;26.65;101358.56;4863348;29;20055;-65
2022/03/10 06:24:52;;;;;;;7.05;3.42;;;;;;;0.63;26.45;101361.94;4861700;29;20091;-65
2022/03/10 06:27:18;;;;;;;7.95;3.50;;;;;;;0.92;26.09;101380.19;4862021;29;20040;-67
2022/03/10 06:29:44;;;;;;;5.45;3.35;;;;;;;1.49;25.74;101359.72;4862459;29;20068;-66
2022/03/10 06:32:09;;;;;;;7.57;4.00;;;;;;;2.20;24.91;101361.75;4892729;29;20068;-66
2022/03/10 06:34:39;;;;;;;5.72;3.38;;;;;;;2.90;24.75;101353.94;4862726;29;20057;-68
2022/03/10 06:37:07;;;;;;;6.35;3.72;;;;;;;3.52;23.52;101353.94;4862293;29;20052;-69
2022/03/10 06:39:33;;;;;;;5.78;3.20;;;;;;;3.82;23.22;101353.47;4860546;29;20055;-68
2022/03/10 06:41:58;;;;;;;8.05;3.83;;;;;;;4.00;22.91;101354.91;4861004;29;20055;-69
2022/03/10 06:44:23;;;;;;;6.85;4.30;;;;;;;4.38;22.25;101354.22;4862386;29;20048;-69
2022/03/10 06:46:48;;;;;;;7.07;4.13;;;;;;;4.82;21.84;101355.97;4892498;29;20055;-69
2022/03/10 06:49:12;;;;;;;7.20;3.80;;;;;;;5.14;21.79;101363.22;4861942;29;20044;-69
2022/03/10 06:51:37;;;;;;;6.60;3.33;;;;;;;5.48;21.84;101360.69;4862030;29;20056;-67
2022/03/10 06:54:02;;;;;;;6.97;3.78;;;;;;;6.00;21.17;101360.31;4860730;29;20084;-68
2022/03/10 06:56:27;;;;;;;8.13;4.13;;;;;;;6.39;20.45;101361.06;4861713;29;20552;-69
2022/03/10 06:58:52;;;;;;;3.90;3.40;;;;;;;6.34;20.39;101356.78;4865241;29;20055;-68
2022/03/10 07:01:17;;;;;;;5.90;3.47;;;;;;;6.15;19.92;101357.28;4865900;29;20061;-68
2022/03/10 07:03:41;;;;;;;8.15;4.97;;;;;;;6.19;20.06;101360.75;4863771;29;20052;-67
2022/03/10 07:06:06;;;;;;;7.30;4.18;;;;;;;6.56;20.20;101360.59;4865229;29;20108;-67
2022/03/10 07:08:31;;;;;;;9.95;4.40;;;;;;;7.39;19.68;101357.28;4861934;29;20048;-68
2022/03/10 07:10:56;;;;;;;8.40;4.18;;;;;;;8.13;19.31;101364.56;4862599;29;20049;-68
2022/03/10 07:13:20;;;;;;;9.70;4.43;;;;;;;8.67;19.35;101363.59;4861439;29;20112;-69
2022/03/10 07:15:45;;;;;;;12.40;4.13;;;;;;;9.25;18.07;101353.44;4863096;29;20040;-69
2022/03/10 07:18:10;;;;;;;7.82;4.38;;;;;;;9.73;18.45;101369.25;4861128;29;20100;-69
2022/03/10 07:20:35;;;;;;;8.32;4.32;;;;;;;9.53;18.07;101370.06;4862834;29;20052;-68
2022/03/10 07:23:00;;;;;;;7.95;4.65;;;;;;;9.29;17.78;101368.34;4876793;29;20052;-69
2022/03/10 07:25:25;;;;;;;7.72;4.22;;;;;;;9.24;17.33;101375.66;4844809;29;20052;-68
2022/03/10 07:27:50;;;;;;;8.63;3.70;;;;;;;9.18;17.31;101366.09;4861489;29;20620;-68
2022/03/10 07:30:15;;;;;;;4.75;3.65;;;;;;;8.99;17.80;101371.25;4863018;29;20064;-69
2022/03/10 07:32:39;;;;;;;8.25;4.40;;;;;;;9.14;17.55;101369.81;4865797;29;20053;-67
2022/03/10 07:35:04;;;;;;;9.13;5.35;;;;;;;9.50;17.07;101364.84;4866559;29;20103;-67
2022/03/10 07:37:29;;;;;;;12.70;5.00;;;;;;;9.81;17.06;101365.38;4866132;29;20052;-69
2022/03/10 07:39:54;;;;;;;9.88;4.20;;;;;;;9.84;16.88;101367.88;4865763;29;20056;-68
2022/03/10 07:42:19;;;;;;;8.20;3.90;;;;;;;9.80;16.58;101366.28;4862424;29;20422;-68
2022/03/10 07:44:44;;;;;;;9.45;4.78;;;;;;;10.05;16.55;101366.13;4861118;29;20044;-68
2022/03/10 07:47:09;;;;;;;7.40;4.13;;;;;;;10.56;16.42;101370.19;4861596;29;20059;-73
2022/03/10 07:49:34;;;;;;;6.72;4.05;;;;;;;10.74;16.10;101360.50;4892042;29;20415;-70
2022/03/10 07:52:00;;;;;;;10.32;4.50;;;;;;;10.88;16.17;101360.75;4865077;29;20433;-70
2022/03/10 07:54:26;;;;;;;20.48;5.53;;;;;;;11.56;15.66;101356.66;4864975;29;20408;-69
2022/03/10 07:56:50;;;;;;;11.60;5.32;;;;;;;12.32;15.92;101358.22;4866973;29;20052;-68
2022/03/10 07:59:15;;;;;;;10.88;4.68;;;;;;;12.87;15.30;101345.47;4867531;29;20048;-69
2022/03/10 08:01:40;;;;;;;9.70;5.47;;;;;;;13.28;14.63;101345.94;4868075;29;20052;-68
2022/03/10 08:04:05;;;;;;;9.25;4.50;;;;;;;13.43;15.20;101344.22;4854331;29;20047;-70
2022/03/10 08:06:30;;;;;;;9.05;5.20;;;;;;;13.92;14.87;101352.97;4868756;29;20415;-69
2022/03/10 08:08:55;;;;;;;8.63;4.75;;;;;;;14.40;14.17;101346.56;4864859;29;20492;-68
2022/03/10 08:11:19;;;;;;;8.48;4.50;;;;;;;14.72;14.41;101341.03;4895122;29;20104;-71
2022/03/10 08:13:45;;;;;;;11.18;4.95;;;;;;;15.00;13.72;101348.25;4863929;29;20135;-71
2022/03/10 08:16:10;;;;;;;8.80;4.20;;;;;;;15.42;13.74;101350.91;4868595;29;20476;-70
2022/03/10 08:18:35;;;;;;;11.38;5.07;;;;;;;15.82;13.78;101342.94;4866172;29;20048;-71
2022/03/10 08:21:00;;;;;;;12.18;4.88;;;;;;;15.95;12.94;101342.03;4864784;29;20159;-70
2022/03/10 08:23:28;;;;;;;7.05;4.40;;;;;;;16.06;12.83;101337.75;4863378;29;20052;-71
2022/03/10 08:25:52;;;;;;;8.07;5.07;;;;;;;16.31;12.81;101341.38;4864789;29;20048;-70
2022/03/10 08:28:17;;;;;;;7.82;4.28;;;;;;;16.75;12.74;101342.84;4864376;29;20048;-69
2022/03/10 08:30:42;;;;;;;6.63;4.75;;;;;;;16.67;12.43;101335.31;4864302;29;20155;-70
2022/03/10 08:33:07;;;;;;;6.70;4.47;;;;;;;16.81;12.58;101334.34;4864388;29;20131;-71
2022/03/10 08:35:32;;;;;;;12.20;5.03;;;;;;;16.95;12.34;101341.41;4864740;29;20044;-78
2022/03/10 08:37:57;;;;;;;10.98;5.20;;;;;;;17.27;12.12;101325.63;4864563;29;20045;-77
2022/03/10 08:40:22;;;;;;;8.10;4.78;;;;;;;17.78;11.96;101319.13;4864655;29;20048;-76
2022/03/10 08:42:50;;;;;;;7.88;4.55;;;;;;;18.38;11.66;101320.84;4895075;29;20491;-77
2022/03/10 08:45:17;;;;;;;11.85;5.55;;;;;;;18.56;11.29;101331.19;4864307;29;20132;-76
2022/03/10 08:47:43;;;;;;;12.85;5.07;;;;;;;18.77;11.15;101327.69;4862901;29;20052;-76
2022/03/10 08:50:08;;;;;;;9.65;5.22;;;;;;;19.17;10.89;101328.09;4862928;29;20579;-76
2022/03/10 08:52:32;;;;;;;18.27;6.03;;;;;;;19.60;11.27;101327.31;4864188;29;20048;-76
2022/03/10 08:54:58;;;;;;;18.15;6.20;;;;;;;19.69;11.01;101334.66;4863908;29;20055;-76
2022/03/10 08:57:22;;;;;;;10.80;4.78;;;;;;;19.37;10.81;101337.28;4864678;29;20052;-76
2022/03/10 08:59:47;;;;;;;10.52;5.30;;;;;;;19.51;10.96;101334.34;4863230;29;20049;-76
2022/03/10 09:02:12;;;;;;;6.40;4.93;;;;;;;19.66;10.80;101326.78;4863099;29;20051;-76
2022/03/10 09:04:37;;;;;;;8.05;4.65;;;;;;;19.57;10.74;101332.97;4864212;29;20052;-76
2022/03/10 09:07:02;;;;;;;10.27;4.82;;;;;;;19.46;10.24;101330.25;4863946;29;20048;-77
2022/03/10 09:09:27;;;;;;;7.32;4.35;;;;;;;19.37;10.42;101325.59;4894370;29;20442;-76
2022/03/10 09:11:52;;;;;;;10.35;4.88;;;;;;;19.88;10.51;101323.16;4863743;29;20048;-75
2022/03/10 09:14:17;;;;;;;8.25;4.70;;;;;;;20.24;10.23;101330.03;4863678;29;20059;-75
2022/03/10 09:16:41;;;;;;;7.25;4.35;;;;;;;20.83;10.02;101324.88;4863481;29;20187;-73
2022/03/10 09:19:06;;;;;;;6.75;4.25;;;;;;;21.19;9.79;101319.94;4864603;29;20052;-75
2022/03/10 09:21:32;;;;;;;6.95;5.00;;;;;;;21.70;9.71;101331.50;4875116;29;20100;-73
2022/03/10 09:23:57;;;;;;;7.30;4.97;;;;;;;22.21;9.62;101318.72;4884896;29;20076;-75
2022/03/10 09:26:23;;;;;;;12.75;4.80;;;;;;;22.33;9.59;101323.84;4898891;29;20070;-75
2022/03/10 09:28:49;;;;;;;7.13;4.55;;;;;;;22.60;9.26;101319.50;4887834;29;20184;-74
2022/03/10 09:31:18;;;;;;;8.13;4.13;;;;;;;22.49;9.32;101334.09;4882625;29;20056;-78
2022/03/10 09:33:44;;;;;;;10.38;4.63;;;;;;;22.28;9.02;101326.13;4867082;29;20049;-78
2022/03/10 09:36:09;;;;;;;9.82;4.65;;;;;;;21.88;9.22;101334.41;4868730;29;20090;-77
2022/03/10 09:38:33;;;;;;;7.82;4.40;;;;;;;21.56;9.48;101329.16;4868517;29;20051;-77
2022/03/10 09:40:58;;;;;;;7.53;4.20;;;;;;;21.36;9.47;101317.41;4851788;29;20044;-74
2022/03/10 09:43:28;;;;;;;6.95;4.40;;;;;;;21.12;8.54;101321.44;4837395;29;20044;-76
2022/03/10 09:45:52;;;;;;;9.60;4.30;;;;;;;20.50;9.21;101325.13;4867161;29;20080;-73
2022/03/10 09:48:18;;;;;;;8.85;4.45;;;;;;;19.82;9.38;101315.56;4867598;29;20048;-75
2022/03/10 09:50:45;;;;;;;7.80;4.20;;;;;;;19.98;9.75;101315.13;4866983;29;20575;-75
2022/03/10 09:53:10;;;;;;;5.82;3.97;;;;;;;20.16;9.77;101314.44;4868747;29;20048;-76
2022/03/10 09:55:35;;;;;;;8.48;4.95;;;;;;;20.34;9.88;101316.53;4867280;29;20060;-76
2022/03/10 09:58:02;;;;;;;8.48;4.47;;;;;;;19.73;9.95;101319.91;4868175;29;20109;-75
2022/03/10 10:00:27;;;;;;;9.77;4.63;;;;;;;18.90;9.67;101316.75;4868308;29;20077;-75
2022/03/10 10:02:52;;;;;;;6.35;4.15;;;;;;;18.27;10.10;101304.63;4868192;29;20127;-75
2022/03/10 10:05:24;;;;;;;4.82;3.60;;;;;;;18.02;10.34;101307.47;4865546;29;20120;-77
2022/03/10 10:08:09;;;;;;;10.63;4.30;;;;;;;18.56;9.57;101306.88;4867249;29;20112;-76
2022/03/10 10:10:35;;;;;;;;;;;;;;;19.71;10.62;101302.06;4864542;29;20508;-77
2022/03/10 10:13:05;;;;;;;3.97;3.35;;;;;;;19.26;9.76;101302.13;4863161;29;19919;-77
2022/03/10 10:15:34;;;;;;;6.20;4.18;;;;;;;18.88;9.74;101307.91;4863678;29;20045;-77
2022/03/10 10:17:59;;;;;;;6.18;3.70;;;;;;;17.73;10.41;101297.03;4864206;29;20415;-77
2022/03/10 10:20:24;;;;;;;4.85;3.38;;;;;;;16.64;10.44;101305.88;4867289;29;20079;-78
2022/03/10 10:22:51;;;;;;;5.35;3.63;;;;;;;15.43;10.65;101295.31;4865339;29;20089;-78
2022/03/10 10:25:20;;;;;;;6.40;4.10;;;;;;;15.37;11.26;101299.25;4867138;29;20052;-77
2022/03/10 10:27:46;;;;;;;8.48;3.78;;;;;;;15.43;11.16;101296.19;4866542;29;20547;-76
2022/03/10 10:30:12;;;;;;;7.13;4.13;;;;;;;14.18;11.55;101301.34;4863566;29;20064;-76
2022/03/10 10:32:44;;;;;;;7.65;3.47;;;;;;;12.27;12.55;101309.47;4864467;29;20063;-79
2022/03/10 10:35:23;;;;;;;7.55;4.43;;;;;;;10.02;13.97;101314.78;4836364;29;20587;-76
2022/03/10 10:37:54;;;;;;;7.10;3.75;;;;;;;7.74;14.78;101308.38;4861298;29;20053;-76
2022/03/10 10:40:22;;;;;;;5.72;3.40;;;;;;;5.79;15.45;101307.91;4871430;29;20048;-76
2022/03/10 10:42:47;;;;;;;9.70;4.35;;;;;;;4.23;17.19;101314.91;4864818;29;20083;-77
2022/03/10 10:45:31;;;;;;;5.80;3.22;;;;;;;3.40;18.42;101317.19;4865390;29;20131;-75
2022/03/10 10:48:03;;;;;;;4.90;2.97;;;;;;;2.68;18.52;101307.69;4863900;29;20060;-76
2022/03/10 10:50:29;;;;;;;6.53;3.25;;;;;;;2.10;19.14;101318.00;4865894;29;20047;-75
2022/03/10 10:52:54;;;;;;;6.47;2.97;;;;;;;1.63;19.28;101315.81;4865855;29;20044;-78
2022/03/10 10:55:19;;;;;;;4.15;3.03;;;;;;;1.29;19.92;101323.97;4865869;29;20044;-77
2022/03/10 10:57:44;;;;;;;5.15;2.60;;;;;;;0.95;19.43;101333.78;4865249;29;20054;-78
2022/03/10 11:00:12;;;;;;;8.98;2.78;;;;;;;0.56;19.77;101331.38;4865440;29;20040;-72
2022/03/10 11:02:42;;;;;;;8.15;3.17;;;;;;;0.18;20.29;101329.72;4862797;29;20508;-71
2022/03/10 11:05:09;;;;;;;4.90;2.67;;;;;;;-0.07;20.35;101331.50;4893563;29;20123;-69
2022/03/10 11:07:35;;;;;;;7.47;3.05;;;;;;;-0.22;21.31;101334.13;4863190;29;20047;-75
2022/03/10 11:10:01;;;;;;;5.82;2.75;;;;;;;-0.46;21.88;101324.56;4866407;29;20051;-71
2022/03/10 11:12:26;;;;;;;8.32;2.97;;;;;;;-0.56;21.79;101321.91;4871287;29;20045;-74
2022/03/10 11:14:51;;;;;;;3.72;2.35;;;;;;;-0.66;21.06;101314.91;4870929;29;20052;-74
2022/03/10 11:17:17;;;;;;;5.85;2.80;;;;;;;-0.87;21.27;101321.00;4869544;29;20052;-74
2022/03/10 11:19:44;;;;;;;10.73;2.65;;;;;;;-1.13;22.08;101324.44;4866456;29;20096;-75
2022/03/10 11:22:25;;;;;;;5.93;2.83;;;;;;;-1.20;22.18;101329.66;4897481;29;20048;-74